Observation data for Seymour on 02/14/2020      Previous  Date  Next       Current Mesonet Observations  Soil Data  Daily Summary Page  Observations in Plain Language
KSE1 140600Z 04005KT M03/M07 A3041 RMK A01 T10301071  RH  074%=      5-min Rain = 0
KSE1 140605Z 05004KT M03/M07 A3041 RMK A01 T10311070  RH  074%=      5-min Rain = 0
KSE1 140610Z 06004KT M03/M07 A3041 RMK A01 T10301071  RH  074%=      5-min Rain = 0
KSE1 140615Z 04005KT M03/M07 A3041 RMK A01 T10301069  RH  074%=      5-min Rain = 0
KSE1 140620Z 04004KT M03/M07 A3041 RMK A01 T10311069  RH  075%=      5-min Rain = 0
KSE1 140625Z 06004KT M03/M07 A3041 RMK A01 T10321069  RH  075%=      5-min Rain = 0
KSE1 140630Z 05004KT M03/M07 A3041 RMK A01 T10311069  RH  075%=      5-min Rain = 0
KSE1 140635Z 05004KT M03/M07 A3041 RMK A01 T10331068  RH  077%=      5-min Rain = 0
KSE1 140640Z 05004KT M03/M07 A3041 RMK A01 T10331068  RH  077%=      5-min Rain = 0
KSE1 140645Z 05004KT M03/M07 A3041 RMK A01 T10331069  RH  077%=      5-min Rain = 0
KSE1 140650Z 05004KT M03/M07 A304 RMK A01 T10341067  RH  078%=      5-min Rain = 0
KSE1 140655Z 04005KT M03/M07 A304 RMK A01 T10331065  RH  079%=      5-min Rain = 0
KSE1 140700Z 04004KT M03/M06 A304 RMK A01 T10321063  RH  079%=      5-min Rain = 0
KSE1 140705Z 05004KT M03/M06 A304 RMK A01 T10321064  RH  079%=      5-min Rain = 0
KSE1 140710Z 05004KT M03/M07 A304 RMK A01 T10321065  RH  078%=      5-min Rain = 0
KSE1 140715Z 04004KT M03/M07 A304 RMK A01 T10311066  RH  077%=      5-min Rain = 0
KSE1 140720Z 05004KT M03/M07 A304 RMK A01 T10321068  RH  076%=      5-min Rain = 0
KSE1 140725Z 04004KT M03/M07 A304 RMK A01 T10331068  RH  077%=      5-min Rain = 0
KSE1 140730Z 04004KT M03/M07 A304 RMK A01 T10341067  RH  078%=      5-min Rain = 0
KSE1 140735Z 03005KT M04/M07 A304 RMK A01 T10371067  RH  080%=      5-min Rain = 0
KSE1 140740Z 04005KT M04/M07 A304 RMK A01 T10391068  RH  080%=      5-min Rain = 0
KSE1 140745Z 03005KT M04/M07 A304 RMK A01 T10401067  RH  081%=      5-min Rain = 0
KSE1 140750Z 03005KT M04/M07 A304 RMK A01 T10391066  RH  081%=      5-min Rain = 0
KSE1 140755Z 03004KT M04/M07 A304 RMK A01 T10381065  RH  081%=      5-min Rain = 0
KSE1 140800Z 03004KT M04/M07 A3041 RMK A01 T10381066  RH  081%=      5-min Rain = 0
KSE1 140805Z 04004KT M04/M07 A3041 RMK A01 T10401067  RH  081%=      5-min Rain = 0
KSE1 140810Z 04003KT M04/M07 A3041 RMK A01 T10401067  RH  081%=      5-min Rain = 0
KSE1 140815Z 04002KT M04/M07 A3041 RMK A01 T10391066  RH  081%=      5-min Rain = 0
KSE1 140820Z 03003KT M04/M07 A3041 RMK A01 T10381066  RH  081%=      5-min Rain = 0
KSE1 140825Z 03004KT M04/M07 A3041 RMK A01 T10381065  RH  082%=      5-min Rain = 0
KSE1 140830Z 04003KT M04/M07 A3041 RMK A01 T10381065  RH  082%=      5-min Rain = 0
KSE1 140835Z 03002KT M04/M07 A3041 RMK A01 T10381065  RH  081%=      5-min Rain = 0
KSE1 140840Z 03003KT M04/M06 A3041 RMK A01 T10361064  RH  081%=      5-min Rain = 0
KSE1 140845Z 02003KT M04/M06 A3041 RMK A01 T10351062  RH  082%=      5-min Rain = 0
KSE1 140850Z 02004KT M04/M06 A3041 RMK A01 T10351062  RH  081%=      5-min Rain = 0
KSE1 140855Z 03004KT M04/M06 A3041 RMK A01 T10351063  RH  081%=      5-min Rain = 0
KSE1 140900Z 02005KT M04/M06 A3041 RMK A01 T10361063  RH  082%=      5-min Rain = 0
KSE1 140905Z 02005KT M04/M06 A3041 RMK A01 T10361062  RH  082%=      5-min Rain = 0
KSE1 140910Z 02004KT M04/M06 A3041 RMK A01 T10371062  RH  082%=      5-min Rain = 0
KSE1 140915Z 02004KT M04/M06 A3041 RMK A01 T10381063  RH  083%=      5-min Rain = 0
KSE1 140920Z 02004KT M04/M06 A3041 RMK A01 T10411063  RH  085%=      5-min Rain = 0
KSE1 140925Z 02005KT M04/M06 A3041 RMK A01 T10421063  RH  085%=      5-min Rain = 0
KSE1 140930Z 02006KT M04/M06 A3041 RMK A01 T10431064  RH  086%=      5-min Rain = 0
KSE1 140935Z 02005KT M04/M06 A3041 RMK A01 T10431063  RH  086%=      5-min Rain = 0
KSE1 140940Z 02005KT M04/M06 A3041 RMK A01 T10441064  RH  086%=      5-min Rain = 0
KSE1 140945Z 02005KT M05/M07 A3041 RMK A01 T10461065  RH  086%=      5-min Rain = 0
KSE1 140950Z 03005KT M05/M07 A3041 RMK A01 T10461066  RH  087%=      5-min Rain = 0
KSE1 140955Z 02005KT M05/M06 A3041 RMK A01 T10451064  RH  087%=      5-min Rain = 0
KSE1 141000Z 02005KT M04/M06 A3041 RMK A01 T10441063  RH  087%=      5-min Rain = 0
KSE1 141005Z 02005KT M04/M06 A3041 RMK A01 T10441063  RH  087%=      5-min Rain = 0
KSE1 141010Z 02006KT M04/M06 A3041 RMK A01 T10441063  RH  087%=      5-min Rain = 0
KSE1 141015Z 02005KT M04/M06 A3041 RMK A01 T10421062  RH  086%=      5-min Rain = 0
KSE1 141020Z 03005KT M04/M06 A3041 RMK A01 T10411063  RH  085%=      5-min Rain = 0
KSE1 141025Z 02006KT M04/M06 A3041 RMK A01 T10421064  RH  085%=      5-min Rain = 0
KSE1 141030Z 03006KT M04/M06 A3041 RMK A01 T10421064  RH  085%=      5-min Rain = 0
KSE1 141035Z 02006KT M04/M06 A3041 RMK A01 T10421064  RH  085%=      5-min Rain = 0
KSE1 141040Z 03006KT M04/M06 A3041 RMK A01 T10411064  RH  084%=      5-min Rain = 0
KSE1 141045Z 02005KT M04/M07 A3041 RMK A01 T10411065  RH  084%=      5-min Rain = 0
KSE1 141050Z 02005KT M04/M07 A3042 RMK A01 T10431066  RH  085%=      5-min Rain = 0
KSE1 141055Z 03005KT M04/M07 A3042 RMK A01 T10441065  RH  086%=      5-min Rain = 0
KSE1 141100Z 03005KT M04/M07 A3042 RMK A01 T10441065  RH  086%=      5-min Rain = 0
KSE1 141105Z 03005KT M05/M07 A3042 RMK A01 T10451066  RH  085%=      5-min Rain = 0
KSE1 141110Z 03005KT M05/M07 A3042 RMK A01 T10461067  RH  086%=      5-min Rain = 0
KSE1 141115Z 03005KT M05/M07 A3043 RMK A01 T10461067  RH  086%=      5-min Rain = 0
KSE1 141120Z 03005KT M05/M07 A3043 RMK A01 T10471067  RH  086%=      5-min Rain = 0
KSE1 141125Z 03005KT M05/M07 A3043 RMK A01 T10481068  RH  086%=      5-min Rain = 0
KSE1 141130Z 03005KT M05/M07 A3043 RMK A01 T10481068  RH  086%=      5-min Rain = 0
KSE1 141135Z 03005KT M05/M07 A3043 RMK A01 T10491069  RH  086%=      5-min Rain = 0
KSE1 141140Z 03004KT M05/M07 A3043 RMK A01 T10501069  RH  087%=      5-min Rain = 0
KSE1 141145Z 04005KT M05/M07 A3043 RMK A01 T10511070  RH  087%=      5-min Rain = 0
KSE1 141150Z 03004KT M05/M07 A3043 RMK A01 T10511070  RH  087%=      5-min Rain = 0
KSE1 141155Z 03005KT M05/M07 A3043 RMK A01 T10521070  RH  087%=      5-min Rain = 0
KSE1 141200Z 04005KT M05/M07 A3043 RMK A01 T10521070  RH  087%=      5-min Rain = 0
KSE1 141205Z 04005KT M05/M07 A3043 RMK A01 T10521070  RH  088%=      5-min Rain = 0
KSE1 141210Z 04006KT M05/M07 A3043 RMK A01 T10511069  RH  088%=      5-min Rain = 0
KSE1 141215Z 04006KT M05/M07 A3043 RMK A01 T10501068  RH  087%=      5-min Rain = 0
KSE1 141220Z 04006KT M05/M07 A3043 RMK A01 T10491068  RH  087%=      5-min Rain = 0
KSE1 141225Z 03006KT M05/M07 A3043 RMK A01 T10491069  RH  086%=      5-min Rain = 0
KSE1 141230Z 03006KT M05/M07 A3043 RMK A01 T10501069  RH  087%=      5-min Rain = 0
KSE1 141235Z 03006KT M05/M07 A3043 RMK A01 T10501069  RH  087%=      5-min Rain = 0
KSE1 141240Z 03006KT M05/M07 A3043 RMK A01 T10511069  RH  087%=      5-min Rain = 0
KSE1 141245Z 04005KT M05/M07 A3043 RMK A01 T10511069  RH  087%=      5-min Rain = 0
KSE1 141250Z 04005KT M05/M07 A3044 RMK A01 T10501068  RH  087%=      5-min Rain = 0
KSE1 141255Z 04004KT M05/M07 A3044 RMK A01 T10511069  RH  087%=      5-min Rain = 0
KSE1 141300Z 04005KT M05/M07 A3044 RMK A01 T10521069  RH  088%=      5-min Rain = 0
KSE1 141305Z 04005KT M05/M07 A3043 RMK A01 T10531070  RH  088%=      5-min Rain = 0
KSE1 141310Z 04005KT M05/M07 A3043 RMK A01 T10531069  RH  089%=      5-min Rain = 0
KSE1 141315Z 04006KT M05/M07 A3043 RMK A01 T10511067  RH  088%=      5-min Rain = 0
KSE1 141320Z 04006KT M05/M07 A3043 RMK A01 T10511068  RH  088%=      5-min Rain = 0
KSE1 141325Z 04006KT M05/M07 A3043 RMK A01 T10511068  RH  088%=      5-min Rain = 0
KSE1 141330Z 04005KT M05/M07 A3043 RMK A01 T10521068  RH  088%=      5-min Rain = 0
KSE1 141335Z 04005KT M05/M07 A3043 RMK A01 T10511067  RH  088%=      5-min Rain = 0
KSE1 141340Z 04005KT M05/M07 A3044 RMK A01 T10491066  RH  088%=      5-min Rain = 0
KSE1 141345Z 05004KT M05/M07 A3044 RMK A01 T10471066  RH  087%=      5-min Rain = 0
KSE1 141350Z 04004KT M05/M07 A3044 RMK A01 T10461065  RH  087%=      5-min Rain = 0
KSE1 141355Z 05004KT M04/M06 A3044 RMK A01 T10441064  RH  086%=      5-min Rain = 0
KSE1 141400Z 05004KT M04/M07 A3044 RMK A01 T10431065  RH  085%=      5-min Rain = 0
KSE1 141405Z 06003KT M04/M06 A3044 RMK A01 T10411064  RH  084%=      5-min Rain = 0
KSE1 141410Z 06004KT M04/M06 A3045 RMK A01 T10381064  RH  082%=      5-min Rain = 0
KSE1 141415Z 06004KT M04/M07 A3045 RMK A01 T10381066  RH  081%=      5-min Rain = 0
KSE1 141420Z 07004KT M04/M06 A3045 RMK A01 T10351064  RH  080%=      5-min Rain = 0
KSE1 141425Z 06005KT M03/M07 A3046 RMK A01 T10341066  RH  078%=      5-min Rain = 0
KSE1 141430Z 07006KT M03/M07 A3045 RMK A01 T10331068  RH  077%=      5-min Rain = 0
KSE1 141435Z 07005KT M03/M07 A3046 RMK A01 T10311067  RH  076%=      5-min Rain = 0
KSE1 141440Z 08005KT M03/M07 A3046 RMK A01 T10291069  RH  074%=      5-min Rain = 0
KSE1 141445Z 08005KT M03/M07 A3046 RMK A01 T10261068  RH  073%=      5-min Rain = 0
KSE1 141450Z 08005KT M03/M07 A3047 RMK A01 T10251069  RH  072%=      5-min Rain = 0
KSE1 141455Z 08005KT M02/M07 A3047 RMK A01 T10231069  RH  070%=      5-min Rain = 0
KSE1 141500Z 10007KT M02/M07 A3047 RMK A01 T10211070  RH  069%=      5-min Rain = 0
KSE1 141505Z 09006KT M02/M07 A3047 RMK A01 T10221072  RH  069%=      5-min Rain = 0
KSE1 141510Z 10006KT M02/M07 A3047 RMK A01 T10191068  RH  069%=      5-min Rain = 0
KSE1 141515Z 09005KT M02/M07 A3047 RMK A01 T10161067  RH  068%=      5-min Rain = 0
KSE1 141520Z 09006KT M02/M07 A3047 RMK A01 T10161070  RH  067%=      5-min Rain = 0
KSE1 141525Z 08005KT M01/M07 A3047 RMK A01 T10131069  RH  066%=      5-min Rain = 0
KSE1 141530Z 09004KT M01/M07 A3047 RMK A01 T10121071  RH  064%=      5-min Rain = 0
KSE1 141535Z 11004KT M01/M07 A3047 RMK A01 T10091069  RH  064%=      5-min Rain = 0
KSE1 141540Z 11004KT M00/M07 A3046 RMK A01 T10041066  RH  063%=      5-min Rain = 0
KSE1 141545Z 09005KT M00/M07 A3046 RMK A01 T10021067  RH  061%=      5-min Rain = 0
KSE1 141550Z 11005KT M00/M07 A3046 RMK A01 T10041071  RH  060%=      5-min Rain = 0
KSE1 141555Z 13005KT 00/M07 A3046 RMK A01 T00031069  RH  059%=      5-min Rain = 0
KSE1 141600Z 10005KT 00/M07 A3046 RMK A01 T00041071  RH  057%=      5-min Rain = 0
KSE1 141605Z 08005KT 00/M07 A3045 RMK A01 T00031071  RH  058%=      5-min Rain = 0
KSE1 141610Z 11005KT 01/M07 A3045 RMK A01 T00051070  RH  057%=      5-min Rain = 0
KSE1 141615Z 13005KT 01/M07 A3045 RMK A01 T00081071  RH  056%=      5-min Rain = 0
KSE1 141620Z 10005KT 01/M07 A3045 RMK A01 T00081073  RH  055%=      5-min Rain = 0
KSE1 141625Z 12004G9KT 01/M07 A3045 RMK A01 T00101072  RH  054%=      5-min Rain = 0
KSE1 141630Z 13005KT 02/M07 A3045 RMK A01 T00151072  RH  052%=      5-min Rain = 0
KSE1 141635Z 13005KT 02/M07 A3044 RMK A01 T00161070  RH  053%=      5-min Rain = 0
KSE1 141640Z 12004KT 02/M07 A3045 RMK A01 T00211069  RH  051%=      5-min Rain = 0
KSE1 141645Z 12005KT 02/M07 A3045 RMK A01 T00231068  RH  051%=      5-min Rain = 0
KSE1 141650Z 15005G10KT 02/M07 A3044 RMK A01 T00241071  RH  050%=      5-min Rain = 0
KSE1 141655Z 16006KT 03/M07 A3044 RMK A01 T00251067  RH  050%=      5-min Rain = 0
KSE1 141700Z 15005KT 02/M07 A3044 RMK A01 T00211070  RH  051%=      5-min Rain = 0
KSE1 141705Z 13006KT 03/M07 A3044 RMK A01 T00261068  RH  050%=      5-min Rain = 0
KSE1 141710Z 13005KT 03/M07 A3044 RMK A01 T00251068  RH  050%=      5-min Rain = 0
KSE1 141715Z 12006KT 03/M07 A3044 RMK A01 T00281065  RH  050%=      5-min Rain = 0
KSE1 141720Z 13005KT 03/M06 A3044 RMK A01 T00291063  RH  051%=      5-min Rain = 0
KSE1 141725Z 15005KT 03/M06 A3044 RMK A01 T00311060  RH  051%=      5-min Rain = 0
KSE1 141730Z 14005KT 03/M06 A3044 RMK A01 T00301059  RH  052%=      5-min Rain = 0
KSE1 141735Z 16005KT 03/M06 A3043 RMK A01 T00311060  RH  052%=      5-min Rain = 0
KSE1 141740Z 14006KT 04/M06 A3043 RMK A01 T00361055  RH  052%=      5-min Rain = 0
KSE1 141745Z 14004KT 04/M06 A3043 RMK A01 T00391055  RH  050%=      5-min Rain = 0
KSE1 141750Z 18006KT 04/M05 A3042 RMK A01 T00381053  RH  052%=      5-min Rain = 0
KSE1 141755Z 18005KT 04/M05 A3042 RMK A01 T00361053  RH  052%=      5-min Rain = 0
KSE1 141800Z 18004KT 04/M05 A3042 RMK A01 T00371053  RH  052%=      5-min Rain = 0
KSE1 141805Z 17005KT 04/M05 A3042 RMK A01 T00431050  RH  051%=      5-min Rain = 0
KSE1 141810Z 19004KT 04/M05 A3041 RMK A01 T00411051  RH  051%=      5-min Rain = 0
KSE1 141815Z 19006KT 05/M05 A3041 RMK A01 T00451045  RH  052%=      5-min Rain = 0
KSE1 141820Z 19005KT 05/M05 A304 RMK A01 T00451048  RH  051%=      5-min Rain = 0
KSE1 141825Z 16005G10KT 05/M05 A304 RMK A01 T00471048  RH  050%=      5-min Rain = 0
KSE1 141830Z 15004KT 05/M05 A304 RMK A01 T00511048  RH  049%=      5-min Rain = 0
KSE1 141835Z 19006KT 05/M04 A304 RMK A01 T00541044  RH  049%=      5-min Rain = 0
KSE1 141840Z 22003KT 05/M04 A3039 RMK A01 T00531044  RH  049%=      5-min Rain = 0
KSE1 141845Z 15004G9KT 06/M04 A3038 RMK A01 T00591042  RH  049%=      5-min Rain = 0
KSE1 141850Z 18005KT 06/M04 A3038 RMK A01 T00601040  RH  049%=      5-min Rain = 0
KSE1 141855Z 18006KT 06/M03 A3037 RMK A01 T00631032  RH  051%=      5-min Rain = 0
KSE1 141900Z 12006KT 07/M04 A3037 RMK A01 T00691037  RH  047%=      5-min Rain = 0
KSE1 141905Z 17005KT 07/M04 A3037 RMK A01 T00661037  RH  048%=      5-min Rain = 0
KSE1 141910Z 16006KT 07/M03 A3036 RMK A01 T00681034  RH  048%=      5-min Rain = 0
KSE1 141915Z 13002KT 07/M04 A3036 RMK A01 T00661041  RH  047%=      5-min Rain = 0
KSE1 141920Z 15005KT 07/M04 A3035 RMK A01 T00691037  RH  047%=      5-min Rain = 0
KSE1 141925Z 16006G11KT 07/M04 A3035 RMK A01 T00701036  RH  047%=      5-min Rain = 0
KSE1 141930Z 15008KT 08/M03 A3034 RMK A01 T00751032  RH  047%=      5-min Rain = 0
KSE1 141935Z 16007KT 07/M04 A3034 RMK A01 T00741035  RH  046%=      5-min Rain = 0
KSE1 141940Z 15008KT 07/M03 A3033 RMK A01 T00741033  RH  047%=      5-min Rain = 0
KSE1 141945Z 14005KT 08/M03 A3033 RMK A01 T00781034  RH  045%=      5-min Rain = 0
KSE1 141950Z 14008KT 08/M03 A3033 RMK A01 T00821029  RH  046%=      5-min Rain = 0
KSE1 141955Z 16007KT 08/M04 A3033 RMK A01 T00801036  RH  044%=      5-min Rain = 0
KSE1 142000Z 16007KT 08/M03 A3032 RMK A01 T00791032  RH  046%=      5-min Rain = 0
KSE1 142005Z 14009KT 08/M03 A3032 RMK A01 T00841031  RH  044%=      5-min Rain = 0
KSE1 142010Z 14007KT 08/M03 A3032 RMK A01 T00841032  RH  044%=      5-min Rain = 0
KSE1 142015Z 16008KT 09/M03 A3031 RMK A01 T00871028  RH  044%=      5-min Rain = 0
KSE1 142020Z 15008KT 09/M03 A303 RMK A01 T00871028  RH  045%=      5-min Rain = 0
KSE1 142025Z 15008KT 09/M02 A303 RMK A01 T00911024  RH  045%=      5-min Rain = 0
KSE1 142030Z 15007G13KT 09/M02 A303 RMK A01 T00941023  RH  044%=      5-min Rain = 0
KSE1 142035Z 14007KT 09/M03 A303 RMK A01 T00901027  RH  044%=      5-min Rain = 0
KSE1 142040Z 15007G13KT 09/M03 A3029 RMK A01 T00901027  RH  044%=      5-min Rain = 0
KSE1 142045Z 16009KT 09/M02 A3029 RMK A01 T00941024  RH  044%=      5-min Rain = 0
KSE1 142050Z 17008KT 09/M02 A3029 RMK A01 T00931024  RH  044%=      5-min Rain = 0
KSE1 142055Z 15009KT 10/M02 A3029 RMK A01 T00951019  RH  045%=      5-min Rain = 0
KSE1 142100Z 15008KT 10/M02 A3029 RMK A01 T01001020  RH  044%=      5-min Rain = 0
KSE1 142105Z 16009G14KT 10/M02 A3028 RMK A01 T01001019  RH  044%=      5-min Rain = 0
KSE1 142110Z 16009KT 10/M02 A3028 RMK A01 T00991022  RH  043%=      5-min Rain = 0
KSE1 142115Z 17007KT 10/M02 A3028 RMK A01 T00971021  RH  044%=      5-min Rain = 0
KSE1 142120Z 16009KT 10/M02 A3028 RMK A01 T00991023  RH  043%=      5-min Rain = 0
KSE1 142125Z 16009KT 10/M02 A3028 RMK A01 T01011019  RH  043%=      5-min Rain = 0
KSE1 142130Z 17011G16KT 10/M02 A3027 RMK A01 T01021016  RH  044%=      5-min Rain = 0
KSE1 142135Z 17010G15KT 10/M01 A3027 RMK A01 T01021013  RH  045%=      5-min Rain = 0
KSE1 142140Z 16009G14KT 11/M01 A3027 RMK A01 T01051014  RH  044%=      5-min Rain = 0
KSE1 142145Z 15009KT 10/M02 A3026 RMK A01 T01031018  RH  043%=      5-min Rain = 0
KSE1 142150Z 15007KT 10/M02 A3026 RMK A01 T01041018  RH  043%=      5-min Rain = 0
KSE1 142155Z 15010G17KT 11/M02 A3026 RMK A01 T01061019  RH  042%=      5-min Rain = 0
KSE1 142200Z 14011KT 11/M02 A3026 RMK A01 T01071019  RH  042%=      5-min Rain = 0
KSE1 142205Z 16011G16KT 11/M01 A3026 RMK A01 T01071014  RH  043%=      5-min Rain = 0
KSE1 142210Z 16009KT 11/M02 A3026 RMK A01 T01061015  RH  043%=      5-min Rain = 0
KSE1 142215Z 16009KT 11/M01 A3026 RMK A01 T01071011  RH  044%=      5-min Rain = 0
KSE1 142220Z 16010KT 11/M01 A3025 RMK A01 T01081013  RH  043%=      5-min Rain = 0
KSE1 142225Z 16008G13KT 11/M01 A3025 RMK A01 T01081013  RH  043%=      5-min Rain = 0
KSE1 142230Z 16009G14KT 11/M01 A3025 RMK A01 T01091009  RH  044%=      5-min Rain = 0
KSE1 142235Z 17011G16KT 11/M01 A3025 RMK A01 T01061012  RH  044%=      5-min Rain = 0
KSE1 142240Z 17011KT 11/M01 A3025 RMK A01 T01051013  RH  044%=      5-min Rain = 0
KSE1 142245Z 17010KT 10/M01 A3024 RMK A01 T01041014  RH  044%=      5-min Rain = 0
KSE1 142250Z 16012KT 10/M01 A3024 RMK A01 T01041012  RH  045%=      5-min Rain = 0
KSE1 142255Z 16011KT 11/M01 A3024 RMK A01 T01051011  RH  045%=      5-min Rain = 0
KSE1 142300Z 17012KT 10/M01 A3023 RMK A01 T01041011  RH  045%=      5-min Rain = 0
KSE1 142305Z 16010G15KT 10/M01 A3023 RMK A01 T01041007  RH  047%=      5-min Rain = 0
KSE1 142310Z 16011G17KT 10/M01 A3023 RMK A01 T01031010  RH  046%=      5-min Rain = 0
KSE1 142315Z 17011G17KT 10/M01 A3023 RMK A01 T01031006  RH  047%=      5-min Rain = 0
KSE1 142320Z 17011KT 10/M01 A3023 RMK A01 T01001008  RH  047%=      5-min Rain = 0
KSE1 142325Z 16011KT 10/M01 A3022 RMK A01 T01001009  RH  047%=      5-min Rain = 0
KSE1 142330Z 16010KT 10/M01 A3022 RMK A01 T01001008  RH  048%=      5-min Rain = 0
KSE1 142335Z 17009KT 10/M00 A3022 RMK A01 T00991003  RH  049%=      5-min Rain = 0
KSE1 142340Z 17008KT 10/00 A3022 RMK A01 T00970000  RH  051%=      5-min Rain = 0
KSE1 142345Z 16007KT 10/M00 A3022 RMK A01 T00971001  RH  051%=      5-min Rain = 0
KSE1 142350Z 16008KT 10/M00 A3022 RMK A01 T00961002  RH  051%=      5-min Rain = 0
KSE1 142355Z 16008KT 09/M00 A3022 RMK A01 T00941003  RH  051%=      5-min Rain = 0
KSE1 150000Z 15006KT 09/M00 A3022 RMK A01 T00911002  RH  053%=      5-min Rain = 0
KSE1 150005Z 15008G13KT 09/M00 A3022 RMK A01 T00881002  RH  054%=      5-min Rain = 0
KSE1 150010Z 15008KT 09/M00 A3022 RMK A01 T00891004  RH  053%=      5-min Rain = 0
KSE1 150015Z 15007KT 09/M00 A3022 RMK A01 T00851003  RH  055%=      5-min Rain = 0
KSE1 150020Z 14007KT 08/M00 A3022 RMK A01 T00821003  RH  056%=      5-min Rain = 0
KSE1 150025Z 14007KT 08/M00 A3022 RMK A01 T00791003  RH  057%=      5-min Rain = 0
KSE1 150030Z 14006KT 07/M00 A3022 RMK A01 T00731002  RH  060%=      5-min Rain = 0
KSE1 150035Z 14006KT 07/M00 A3022 RMK A01 T00651002  RH  063%=      5-min Rain = 0
KSE1 150040Z 13006KT 06/M00 A3022 RMK A01 T00581003  RH  066%=      5-min Rain = 0
KSE1 150045Z 13007KT 05/M00 A3022 RMK A01 T00521002  RH  069%=      5-min Rain = 0
KSE1 150050Z 13007KT 05/M00 A3022 RMK A01 T00501002  RH  070%=      5-min Rain = 0
KSE1 150055Z 13007KT 05/M00 A3022 RMK A01 T00451001  RH  073%=      5-min Rain = 0
KSE1 150100Z 13007KT 04/00 A3022 RMK A01 T004300-0  RH  074%=      5-min Rain = 0
KSE1 150105Z 13007KT 04/M00 A3022 RMK A01 T00441001  RH  073%=      5-min Rain = 0
KSE1 150110Z 12006KT 04/00 A3021 RMK A01 T00440001  RH  075%=      5-min Rain = 0
KSE1 150115Z 12007KT 04/00 A3022 RMK A01 T00440000  RH  074%=      5-min Rain = 0
KSE1 150120Z 13007KT 04/M00 A3021 RMK A01 T00411001  RH  075%=      5-min Rain = 0
KSE1 150125Z 13007KT 04/00 A3022 RMK A01 T00440001  RH  075%=      5-min Rain = 0
KSE1 150130Z 13008KT 05/00 A3021 RMK A01 T00460003  RH  074%=      5-min Rain = 0
KSE1 150135Z 13007KT 05/00 A3021 RMK A01 T00500004  RH  073%=      5-min Rain = 0
KSE1 150140Z 13007KT 05/00 A3022 RMK A01 T00520004  RH  072%=      5-min Rain = 0
KSE1 150145Z 13008KT 05/00 A3021 RMK A01 T00530004  RH  072%=      5-min Rain = 0
KSE1 150150Z 13007KT 05/00 A3021 RMK A01 T00520004  RH  072%=      5-min Rain = 0
KSE1 150155Z 13007KT 05/00 A3022 RMK A01 T00530004  RH  072%=      5-min Rain = 0
KSE1 150200Z 14007KT 05/00 A3022 RMK A01 T00540004  RH  071%=      5-min Rain = 0
KSE1 150205Z 13007KT 06/00 A3022 RMK A01 T00550003  RH  070%=      5-min Rain = 0
KSE1 150210Z 14007KT 06/00 A3022 RMK A01 T00560004  RH  070%=      5-min Rain = 0
KSE1 150215Z 14008KT 06/00 A3022 RMK A01 T00570004  RH  069%=      5-min Rain = 0
KSE1 150220Z 13008KT 06/00 A3022 RMK A01 T00600004  RH  068%=      5-min Rain = 0
KSE1 150225Z 13008KT 06/00 A3022 RMK A01 T00570004  RH  069%=      5-min Rain = 0
KSE1 150230Z 13009KT 06/00 A3022 RMK A01 T00550004  RH  070%=      5-min Rain = 0
KSE1 150235Z 13009KT 05/00 A3022 RMK A01 T00540004  RH  071%=      5-min Rain = 0
KSE1 150240Z 13008KT 05/00 A3022 RMK A01 T00510004  RH  072%=      5-min Rain = 0
KSE1 150245Z 14009KT 05/00 A3022 RMK A01 T00520004  RH  072%=      5-min Rain = 0
KSE1 150250Z 14009KT 05/00 A3022 RMK A01 T00540004  RH  071%=      5-min Rain = 0
KSE1 150255Z 14009KT 06/00 A3021 RMK A01 T00560004  RH  070%=      5-min Rain = 0
KSE1 150300Z 13009KT 06/00 A3021 RMK A01 T00550003  RH  070%=      5-min Rain = 0
KSE1 150305Z 13008KT 05/00 A3021 RMK A01 T00520003  RH  071%=      5-min Rain = 0
KSE1 150310Z 13008KT 05/00 A3021 RMK A01 T00480003  RH  073%=      5-min Rain = 0
KSE1 150315Z 13007KT 05/00 A3021 RMK A01 T00470003  RH  074%=      5-min Rain = 0
KSE1 150320Z 14008KT 05/00 A3021 RMK A01 T00470003  RH  074%=      5-min Rain = 0
KSE1 150325Z 14008KT 05/00 A3021 RMK A01 T00500004  RH  073%=      5-min Rain = 0
KSE1 150330Z 14009KT 05/00 A3021 RMK A01 T00510003  RH  072%=      5-min Rain = 0
KSE1 150335Z 15009KT 05/00 A302 RMK A01 T00520003  RH  072%=      5-min Rain = 0
KSE1 150340Z 15009KT 05/00 A302 RMK A01 T00520003  RH  072%=      5-min Rain = 0
KSE1 150345Z 15010KT 05/00 A302 RMK A01 T00520003  RH  072%=      5-min Rain = 0
KSE1 150350Z 15010KT 05/00 A302 RMK A01 T00520003  RH  072%=      5-min Rain = 0
KSE1 150355Z 15011KT 05/00 A302 RMK A01 T00520004  RH  072%=      5-min Rain = 0
KSE1 150400Z 15011G17KT 05/00 A302 RMK A01 T00520004  RH  072%=      5-min Rain = 0
KSE1 150405Z 15010KT 05/00 A3019 RMK A01 T00510004  RH  072%=      5-min Rain = 0
KSE1 150410Z 15011KT 05/01 A3019 RMK A01 T00520005  RH  072%=      5-min Rain = 0
KSE1 150415Z 15011G16KT 05/01 A3019 RMK A01 T00530005  RH  072%=      5-min Rain = 0
KSE1 150420Z 15012G17KT 05/01 A3019 RMK A01 T00530005  RH  072%=      5-min Rain = 0
KSE1 150425Z 15011KT 05/01 A3019 RMK A01 T00530005  RH  072%=      5-min Rain = 0
KSE1 150430Z 15011G16KT 05/01 A3019 RMK A01 T00520006  RH  073%=      5-min Rain = 0
KSE1 150435Z 15011G16KT 05/01 A3019 RMK A01 T00520006  RH  073%=      5-min Rain = 0
KSE1 150440Z 15012G17KT 05/01 A3019 RMK A01 T00520006  RH  073%=      5-min Rain = 0
KSE1 150445Z 16012G17KT 05/01 A3019 RMK A01 T00520007  RH  074%=      5-min Rain = 0
KSE1 150450Z 16013G18KT 05/01 A3019 RMK A01 T00520008  RH  074%=      5-min Rain = 0
KSE1 150455Z 16012G18KT 05/01 A3019 RMK A01 T00510008  RH  075%=      5-min Rain = 0
KSE1 150500Z 16012KT 05/01 A3019 RMK A01 T00490008  RH  076%=      5-min Rain = 0
KSE1 150505Z 16012KT 05/01 A3019 RMK A01 T00480009  RH  077%=      5-min Rain = 0
KSE1 150510Z 16011KT 05/01 A3018 RMK A01 T00470009  RH  077%=      5-min Rain = 0
KSE1 150515Z 16012G17KT 05/01 A3018 RMK A01 T00460010  RH  078%=      5-min Rain = 0
KSE1 150520Z 16012G17KT 05/01 A3018 RMK A01 T00470010  RH  078%=      5-min Rain = 0
KSE1 150525Z 16012KT 05/01 A3018 RMK A01 T00470011  RH  078%=      5-min Rain = 0
KSE1 150530Z 16011KT 05/01 A3018 RMK A01 T00460011  RH  079%=      5-min Rain = 0
KSE1 150535Z 16012KT 05/01 A3018 RMK A01 T00470011  RH  079%=      5-min Rain = 0
KSE1 150540Z 16012KT 05/01 A3017 RMK A01 T00470012  RH  079%=      5-min Rain = 0
KSE1 150545Z 16012G17KT 05/01 A3017 RMK A01 T00490013  RH  078%=      5-min Rain = 0
KSE1 150550Z 16012G18KT 05/01 A3017 RMK A01 T00500013  RH  078%=      5-min Rain = 0
KSE1 150555Z 16012G17KT 05/01 A3017 RMK A01 T00510013  RH  078%=      5-min Rain = 0

Page generated in 0.0149 seconds.